Time;durP1;ratioP1;P1;durP2;ratioP2;P2;SDS_P1;SDS_P2;PMS_P1;PMS_P2;Temp;Humidity;BMP_temperature;BMP_pressure;BME280_temperature;BME280_humidity;BME280_pressure;Samples;Min_cycle;Max_cycle;Signal;HPM_P1;HPM_P2
2022/10/25 00:01:45;;;;;;;5.00;1.63;;;;;;;;;;4992775;28;20229;-73
2022/10/25 00:04:11;;;;;;;5.20;1.77;;;;;;;;;;4999107;28;20234;-74
2022/10/25 00:06:42;;;;;;;4.53;2.20;;;;;;;;;;4990972;28;20282;-74
2022/10/25 00:09:10;;;;;;;4.20;1.60;;;;;;;;;;5005579;28;20700;-74
2022/10/25 00:11:36;;;;;;;3.93;2.20;;;;;;;;;;4998086;28;20251;-74
2022/10/25 00:14:06;;;;;;;5.60;1.70;;;;;;;;;;5015808;28;20220;-74
2022/10/25 00:16:36;;;;;;;4.60;1.63;;;;;;;;;;5000627;28;20290;-73
2022/10/25 00:19:10;;;;;;;5.70;2.30;;;;;;;;;;5005857;28;20217;-74
2022/10/25 00:21:36;;;;;;;3.87;1.70;;;;;;;;;;4988742;28;20819;-73
2022/10/25 00:24:05;;;;;;;4.67;1.90;;;;;;;;;;4995131;28;20220;-74
2022/10/25 00:26:33;;;;;;;7.57;2.33;;;;;;;;;;4987626;28;20256;-75
2022/10/25 00:29:03;;;;;;;6.70;1.80;;;;;;;;;;4990560;28;20330;-74
2022/10/25 00:31:30;;;;;;;7.20;2.10;;;;;;;;;;5008038;28;20220;-74
2022/10/25 00:33:56;;;;;;;6.87;1.90;;;;;;;;;;4993277;28;20228;-74
2022/10/25 00:36:25;;;;;;;5.67;2.00;;;;;;;;;;4993957;28;20236;-74
2022/10/25 00:38:56;;;;;;;6.47;1.83;;;;;;;;;;4978722;28;20220;-74
2022/10/25 00:41:25;;;;;;;6.70;1.80;;;;;;;;;;5004250;28;20228;-73
2022/10/25 00:43:52;;;;;;;3.97;1.70;;;;;;;;;;4989429;28;20228;-74
2022/10/25 00:46:22;;;;;;;4.73;1.87;;;;;;;;;;4993590;28;20702;-73
2022/10/25 00:48:55;;;;;;;7.20;2.17;;;;;;;;;;5021275;28;20324;-74
2022/10/25 00:51:21;;;;;;;4.73;1.97;;;;;;;;;;5000539;28;20263;-74
2022/10/25 00:53:46;;;;;;;4.87;2.20;;;;;;;;;;5002824;28;20315;-73
2022/10/25 00:56:15;;;;;;;7.17;1.63;;;;;;;;;;4987730;28;20707;-75
2022/10/25 00:58:45;;;;;;;4.37;1.83;;;;;;;;;;4973936;28;20220;-74
2022/10/25 01:01:14;;;;;;;5.70;1.87;;;;;;;;;;4993466;28;20224;-75
2022/10/25 01:03:43;;;;;;;5.43;1.77;;;;;;;;;;4999735;28;20221;-75
2022/10/25 01:06:16;;;;;;;4.97;2.03;;;;;;;;;;4987490;28;20239;-74
2022/10/25 01:08:42;;;;;;;4.43;1.93;;;;;;;;;;4975011;28;20227;-75
2022/10/25 01:11:07;;;;;;;5.37;2.00;;;;;;;;;;4986099;28;20221;-75
2022/10/25 01:13:34;;;;;;;5.33;1.87;;;;;;;;;;5005691;28;20224;-75
2022/10/25 01:16:24;;;;;;;4.37;1.50;;;;;;;;;;4987364;28;20217;-75
2022/10/25 01:19:11;;;;;;;3.63;1.80;;;;;;;;;;4990898;28;20235;-75
2022/10/25 01:21:43;;;;;;;4.00;1.80;;;;;;;;;;4990728;28;20722;-75
2022/10/25 01:24:11;;;;;;;3.33;1.77;;;;;;;;;;4997406;28;20213;-75
2022/10/25 01:27:03;;;;;;;2.83;1.63;;;;;;;;;;5008498;28;20225;-75
2022/10/25 01:29:28;;;;;;;5.83;2.73;;;;;;;;;;4997205;28;20243;-74
2022/10/25 01:31:56;;;;;;;7.40;2.07;;;;;;;;;;4999384;28;20231;-75
2022/10/25 01:34:23;;;;;;;5.87;2.13;;;;;;;;;;4964441;28;20233;-75
2022/10/25 01:37:09;;;;;;;4.33;2.40;;;;;;;;;;4984304;28;20225;-76
2022/10/25 01:39:43;;;;;;;3.70;2.20;;;;;;;;;;4997617;28;20735;-75
2022/10/25 01:42:20;;;;;;;6.13;2.20;;;;;;;;;;4973617;28;20247;-75
2022/10/25 01:44:58;;;;;;;3.13;2.53;;;;;;;;;;4953307;28;20232;-75
2022/10/25 01:47:26;;;;;;;4.00;2.57;;;;;;;;;;4998279;28;20217;-75
2022/10/25 01:49:57;;;;;;;4.27;2.70;;;;;;;;;;4979421;28;20250;-75
2022/10/25 01:52:25;;;;;;;3.20;2.30;;;;;;;;;;5005136;28;20329;-74
2022/10/25 01:54:53;;;;;;;3.97;2.70;;;;;;;;;;5002272;28;20305;-75
2022/10/25 01:57:21;;;;;;;4.03;2.57;;;;;;;;;;4969690;28;20225;-74
2022/10/25 02:00:11;;;;;;;3.80;2.30;;;;;;;;;;4999819;28;20691;-75
2022/10/25 02:02:51;;;;;;;3.60;2.80;;;;;;;;;;5002638;28;20244;-74
2022/10/25 02:05:23;;;;;;;6.23;3.20;;;;;;;;;;5013606;28;20223;-74
2022/10/25 02:07:54;;;;;;;4.20;2.83;;;;;;;;;;4971779;28;20229;-75
2022/10/25 02:10:32;;;;;;;5.97;2.70;;;;;;;;;;5014921;28;20225;-74
2022/10/25 02:13:21;;;;;;;6.23;2.60;;;;;;;;;;5002941;28;20224;-73
2022/10/25 02:16:02;;;;;;;3.10;2.67;;;;;;;;;;5003814;28;20228;-75
2022/10/25 02:18:31;;;;;;;3.37;2.57;;;;;;;;;;4989349;28;20317;-74
2022/10/25 02:20:59;;;;;;;6.23;3.63;;;;;;;;;;4987397;28;20233;-74
2022/10/25 02:23:28;;;;;;;6.13;3.07;;;;;;;;;;4984808;28;20228;-75
2022/10/25 02:25:53;;;;;;;5.00;2.83;;;;;;;;;;4988057;28;20217;-75
2022/10/25 02:28:22;;;;;;;4.23;2.97;;;;;;;;;;4984983;28;20736;-75
2022/10/25 02:30:50;;;;;;;3.30;2.97;;;;;;;;;;4975950;28;20221;-74
2022/10/25 02:33:20;;;;;;;4.40;3.10;;;;;;;;;;4989893;28;20223;-74
2022/10/25 02:36:04;;;;;;;6.50;3.40;;;;;;;;;;4975390;28;20232;-74
2022/10/25 02:38:29;;;;;;;4.33;3.17;;;;;;;;;;4966708;28;20224;-74
2022/10/25 02:40:58;;;;;;;4.40;3.60;;;;;;;;;;4984212;28;20224;-75
2022/10/25 02:43:24;;;;;;;5.30;3.90;;;;;;;;;;4989272;28;20259;-74
2022/10/25 02:45:54;;;;;;;4.87;3.13;;;;;;;;;;5000717;28;20208;-74
2022/10/25 02:48:25;;;;;;;3.63;3.33;;;;;;;;;;5014280;28;20310;-74
2022/10/25 02:50:50;;;;;;;6.23;3.03;;;;;;;;;;5007719;28;20690;-73
2022/10/25 02:53:18;;;;;;;6.23;3.37;;;;;;;;;;5001650;28;20223;-74
2022/10/25 02:55:43;;;;;;;6.23;3.10;;;;;;;;;;4987147;28;20250;-74
2022/10/25 02:58:11;;;;;;;6.20;3.20;;;;;;;;;;5004799;28;20220;-74
2022/10/25 03:00:39;;;;;;;4.27;3.27;;;;;;;;;;4990729;28;20221;-74
2022/10/25 03:03:05;;;;;;;4.37;3.20;;;;;;;;;;4994254;28;20239;-74
2022/10/25 03:05:30;;;;;;;5.67;3.50;;;;;;;;;;5001857;28;20216;-75
2022/10/25 03:07:58;;;;;;;5.97;3.60;;;;;;;;;;5005560;28;20220;-74
2022/10/25 03:10:23;;;;;;;4.93;3.57;;;;;;;;;;5005558;28;20239;-75
2022/10/25 03:12:51;;;;;;;5.77;3.53;;;;;;;;;;5022479;28;20212;-76
2022/10/25 03:15:17;;;;;;;3.93;3.17;;;;;;;;;;4990326;28;20217;-75
2022/10/25 03:17:42;;;;;;;6.17;3.20;;;;;;;;;;4994857;28;20216;-72
2022/10/25 03:20:10;;;;;;;6.13;3.40;;;;;;;;;;4980830;28;20629;-73
2022/10/25 03:22:38;;;;;;;5.43;3.53;;;;;;;;;;4984131;28;20228;-75
2022/10/25 03:25:04;;;;;;;7.57;3.40;;;;;;;;;;5007831;28;20216;-73
2022/10/25 03:27:29;;;;;;;4.33;2.93;;;;;;;;;;5020813;28;20221;-74
2022/10/25 03:29:55;;;;;;;4.63;2.77;;;;;;;;;;5019188;28;20228;-76
2022/10/25 03:32:22;;;;;;;8.87;3.37;;;;;;;;;;5019452;28;20224;-75
2022/10/25 03:34:48;;;;;;;5.13;3.00;;;;;;;;;;5019736;28;20585;-76
2022/10/25 03:37:18;;;;;;;4.60;3.13;;;;;;;;;;5001700;28;20224;-76
2022/10/25 03:39:45;;;;;;;6.93;2.90;;;;;;;;;;4994565;28;20637;-76
2022/10/25 03:42:11;;;;;;;6.77;3.80;;;;;;;;;;5019906;28;20231;-75
2022/10/25 03:44:36;;;;;;;5.57;3.70;;;;;;;;;;5002421;28;20251;-74
2022/10/25 03:47:02;;;;;;;5.70;2.97;;;;;;;;;;4991667;28;20220;-75
2022/10/25 03:49:29;;;;;;;3.93;3.10;;;;;;;;;;5021302;28;20212;-75
2022/10/25 03:51:55;;;;;;;3.90;3.50;;;;;;;;;;4993691;28;20222;-75
2022/10/25 03:54:23;;;;;;;5.80;3.47;;;;;;;;;;4993924;28;20216;-75
2022/10/25 03:56:49;;;;;;;4.97;3.47;;;;;;;;;;4993569;28;20244;-75
2022/10/25 03:59:16;;;;;;;4.90;3.73;;;;;;;;;;5015409;28;20250;-75
2022/10/25 04:01:42;;;;;;;6.87;3.80;;;;;;;;;;4993687;28;20307;-75
2022/10/25 04:04:10;;;;;;;5.43;3.80;;;;;;;;;;4964613;28;20799;-76
2022/10/25 04:06:36;;;;;;;5.37;3.60;;;;;;;;;;5012838;28;20286;-74
2022/10/25 04:09:01;;;;;;;7.30;3.93;;;;;;;;;;4984662;28;20597;-75
2022/10/25 04:11:31;;;;;;;6.77;4.20;;;;;;;;;;4986383;28;20235;-75
2022/10/25 04:13:57;;;;;;;3.83;3.20;;;;;;;;;;5004610;28;20216;-76
2022/10/25 04:16:22;;;;;;;4.53;3.37;;;;;;;;;;4992508;28;20235;-76
2022/10/25 04:18:56;;;;;;;4.07;3.30;;;;;;;;;;5000214;28;20224;-76
2022/10/25 04:21:24;;;;;;;5.03;3.67;;;;;;;;;;4993506;28;20722;-75
2022/10/25 04:23:52;;;;;;;5.87;3.20;;;;;;;;;;4994989;28;20294;-75
2022/10/25 04:26:20;;;;;;;4.93;2.63;;;;;;;;;;4975244;28;20784;-75
2022/10/25 04:28:52;;;;;;;6.10;3.27;;;;;;;;;;4992908;28;20677;-75
2022/10/25 04:31:18;;;;;;;7.07;3.60;;;;;;;;;;4977210;28;20316;-75
2022/10/25 04:33:49;;;;;;;4.70;3.20;;;;;;;;;;5002612;28;20316;-75
2022/10/25 04:36:14;;;;;;;5.07;2.83;;;;;;;;;;4974706;28;20581;-75
2022/10/25 04:38:42;;;;;;;7.47;3.43;;;;;;;;;;5025957;28;20871;-74
2022/10/25 04:41:08;;;;;;;4.97;3.10;;;;;;;;;;5006174;28;20260;-75
2022/10/25 04:43:39;;;;;;;4.90;3.00;;;;;;;;;;5020324;28;20691;-75
2022/10/25 04:46:05;;;;;;;6.13;3.00;;;;;;;;;;4976177;28;20231;-75
2022/10/25 04:48:30;;;;;;;4.47;2.87;;;;;;;;;;5005874;28;20246;-74
2022/10/25 04:50:58;;;;;;;5.57;3.30;;;;;;;;;;5014417;28;20211;-75
2022/10/25 04:53:24;;;;;;;4.50;3.07;;;;;;;;;;4980588;28;20290;-74
2022/10/25 04:56:06;;;;;;;5.07;3.23;;;;;;;;;;5017024;28;20693;-74
2022/10/25 04:58:36;;;;;;;4.87;2.90;;;;;;;;;;4991872;28;20296;-74
2022/10/25 05:01:05;;;;;;;5.70;3.57;;;;;;;;;;4971881;28;20310;-75
2022/10/25 05:03:35;;;;;;;7.30;3.80;;;;;;;;;;4974174;28;20267;-75
2022/10/25 05:06:08;;;;;;;5.90;3.10;;;;;;;;;;4969208;28;20308;-74
2022/10/25 05:08:36;;;;;;;3.37;3.03;;;;;;;;;;5004111;28;20221;-74
2022/10/25 05:11:04;;;;;;;4.10;3.30;;;;;;;;;;4990012;28;20240;-74
2022/10/25 05:13:33;;;;;;;4.83;3.83;;;;;;;;;;4971468;28;20698;-74
2022/10/25 05:15:59;;;;;;;4.27;3.37;;;;;;;;;;5003018;28;20212;-74
2022/10/25 05:18:27;;;;;;;5.87;3.80;;;;;;;;;;4973211;28;20284;-74
2022/10/25 05:20:57;;;;;;;4.70;3.57;;;;;;;;;;4982761;28;20253;-75
2022/10/25 05:23:22;;;;;;;5.67;3.57;;;;;;;;;;4976603;28;20223;-74
2022/10/25 05:25:48;;;;;;;4.27;3.47;;;;;;;;;;4992385;28;20254;-74
2022/10/25 05:28:16;;;;;;;5.93;3.77;;;;;;;;;;5006412;28;20220;-74
2022/10/25 05:30:44;;;;;;;10.77;4.67;;;;;;;;;;4992817;28;20215;-75
2022/10/25 05:33:09;;;;;;;6.60;3.87;;;;;;;;;;5000781;28;20220;-75
2022/10/25 05:35:35;;;;;;;7.13;4.33;;;;;;;;;;4983070;28;20271;-75
2022/10/25 05:38:07;;;;;;;5.03;4.10;;;;;;;;;;4999863;28;20287;-76
2022/10/25 05:40:33;;;;;;;4.57;4.18;;;;;;;;;;4985028;28;20224;-75
2022/10/25 05:43:00;;;;;;;4.87;4.37;;;;;;;;;;4990936;28;20222;-74
2022/10/25 05:45:26;;;;;;;5.97;4.67;;;;;;;;;;4983099;28;20227;-74
2022/10/25 05:47:54;;;;;;;8.73;5.20;;;;;;;;;;4993227;28;20224;-74
2022/10/25 05:50:19;;;;;;;8.80;4.70;;;;;;;;;;4994165;28;20215;-75
2022/10/25 05:52:45;;;;;;;6.20;5.20;;;;;;;;;;5018698;28;20225;-74
2022/10/25 05:55:13;;;;;;;10.47;6.73;;;;;;;;;;4992384;28;20220;-76
2022/10/25 05:57:38;;;;;;;15.87;12.33;;;;;;;;;;4992439;28;20220;-74
2022/10/25 06:00:06;;;;;;;9.57;6.90;;;;;;;;;;4997730;28;20227;-74
2022/10/25 06:02:34;;;;;;;8.93;5.40;;;;;;;;;;5003291;28;20228;-75
2022/10/25 06:05:02;;;;;;;8.57;5.73;;;;;;;;;;4991219;28;20232;-74
2022/10/25 06:07:28;;;;;;;7.20;5.87;;;;;;;;;;5007787;28;20217;-75
2022/10/25 06:09:53;;;;;;;7.00;5.90;;;;;;;;;;5001161;28;20224;-75
2022/10/25 06:12:23;;;;;;;8.37;5.87;;;;;;;;;;5007773;28;20204;-74
2022/10/25 06:14:51;;;;;;;6.53;5.87;;;;;;;;;;4979660;28;20225;-74
2022/10/25 06:17:17;;;;;;;8.17;6.00;;;;;;;;;;5020330;28;20277;-76
2022/10/25 06:19:47;;;;;;;7.17;6.20;;;;;;;;;;5011117;28;20220;-74
2022/10/25 06:22:12;;;;;;;7.60;5.83;;;;;;;;;;4963640;28;20231;-75
2022/10/25 06:24:40;;;;;;;7.33;6.20;;;;;;;;;;4997164;28;20585;-75
2022/10/25 06:27:11;;;;;;;6.80;5.77;;;;;;;;;;5010159;28;20227;-73
2022/10/25 06:29:36;;;;;;;8.17;5.87;;;;;;;;;;5008245;28;20641;-74
2022/10/25 06:32:02;;;;;;;8.17;6.43;;;;;;;;;;5006409;28;20232;-74
2022/10/25 06:34:28;;;;;;;6.73;6.10;;;;;;;;;;5020585;28;20228;-74
2022/10/25 06:36:53;;;;;;;10.53;6.73;;;;;;;;;;4996216;28;20801;-73
2022/10/25 06:39:19;;;;;;;8.50;5.87;;;;;;;;;;4990527;28;20219;-73
2022/10/25 06:41:44;;;;;;;8.53;6.50;;;;;;;;;;4984859;28;20309;-73
2022/10/25 06:44:10;;;;;;;8.37;5.67;;;;;;;;;;5017205;28;20767;-73
2022/10/25 06:46:39;;;;;;;6.97;5.53;;;;;;;;;;5002470;28;20219;-73
2022/10/25 06:49:06;;;;;;;10.50;5.53;;;;;;;;;;4988746;28;20215;-73
2022/10/25 06:51:33;;;;;;;7.05;5.32;;;;;;;;;;5012161;28;20584;-73
2022/10/25 06:54:06;;;;;;;6.93;5.43;;;;;;;;;;5003435;28;20580;-75
2022/10/25 06:56:32;;;;;;;8.03;5.90;;;;;;;;;;4985436;28;20602;-75
2022/10/25 06:59:00;;;;;;;5.80;5.30;;;;;;;;;;5003924;28;20213;-74
2022/10/25 07:01:28;;;;;;;5.73;5.13;;;;;;;;;;5018642;28;20252;-75
2022/10/25 07:03:55;;;;;;;9.80;5.50;;;;;;;;;;4975394;28;20227;-74
2022/10/25 07:06:34;;;;;;;14.27;6.70;;;;;;;;;;4993469;28;20216;-74
2022/10/25 07:09:05;;;;;;;6.53;5.17;;;;;;;;;;4980469;28;20232;-73
2022/10/25 07:11:38;;;;;;;7.23;5.50;;;;;;;;;;4995015;28;20706;-74
2022/10/25 07:14:07;;;;;;;5.83;5.17;;;;;;;;;;4986028;28;20236;-74
2022/10/25 07:16:37;;;;;;;7.70;5.10;;;;;;;;;;5005063;28;20299;-73
2022/10/25 07:19:05;;;;;;;8.20;5.13;;;;;;;;;;5004974;28;20605;-74
2022/10/25 07:21:31;;;;;;;6.57;5.47;;;;;;;;;;5004897;28;20232;-74
2022/10/25 07:23:57;;;;;;;7.60;5.50;;;;;;;;;;5012845;28;20601;-73
2022/10/25 07:26:23;;;;;;;7.90;5.40;;;;;;;;;;4992504;28;20238;-73
2022/10/25 07:28:49;;;;;;;9.07;5.63;;;;;;;;;;5023213;28;20224;-74
2022/10/25 07:31:18;;;;;;;8.93;6.03;;;;;;;;;;4976889;28;20213;-73
2022/10/25 07:33:46;;;;;;;8.50;5.77;;;;;;;;;;5023192;28;20220;-73
2022/10/25 07:36:11;;;;;;;7.27;5.30;;;;;;;;;;5001052;28;20216;-74
2022/10/25 07:38:37;;;;;;;6.67;4.97;;;;;;;;;;5026731;28;20281;-74
2022/10/25 07:41:06;;;;;;;8.10;5.37;;;;;;;;;;4994629;28;20225;-71
2022/10/25 07:43:33;;;;;;;8.60;4.93;;;;;;;;;;5007472;28;20217;-72
2022/10/25 07:45:59;;;;;;;9.20;5.47;;;;;;;;;;4975408;28;20224;-76
2022/10/25 07:48:29;;;;;;;8.00;5.83;;;;;;;;;;4966589;28;20224;-73
2022/10/25 07:50:59;;;;;;;12.17;5.50;;;;;;;;;;5013097;28;20651;-74
2022/10/25 07:53:28;;;;;;;7.07;5.40;;;;;;;;;;4977094;28;20648;-74
2022/10/25 07:55:56;;;;;;;6.87;5.27;;;;;;;;;;5007209;28;20220;-73
2022/10/25 07:58:21;;;;;;;5.90;5.30;;;;;;;;;;4963225;28;20236;-73
2022/10/25 08:00:47;;;;;;;9.83;6.07;;;;;;;;;;4977820;28;20230;-74
2022/10/25 08:03:14;;;;;;;9.53;5.73;;;;;;;;;;4989148;28;20235;-74
2022/10/25 08:05:39;;;;;;;10.27;6.20;;;;;;;;;;4963508;28;20314;-77
2022/10/25 08:08:07;;;;;;;8.77;5.87;;;;;;;;;;4962730;28;20643;-76
2022/10/25 08:10:33;;;;;;;8.37;6.00;;;;;;;;;;5005069;28;20228;-76
2022/10/25 08:13:00;;;;;;;8.47;6.00;;;;;;;;;;5006018;28;20225;-75
2022/10/25 08:15:26;;;;;;;10.73;6.50;;;;;;;;;;5002424;28;20270;-76
2022/10/25 08:18:00;;;;;;;8.20;6.33;;;;;;;;;;4979882;28;20630;-76
2022/10/25 08:20:27;;;;;;;9.23;5.93;;;;;;;;;;4992911;28;20243;-74
2022/10/25 08:23:01;;;;;;;9.90;6.23;;;;;;;;;;4992394;28;20216;-76
2022/10/25 08:25:27;;;;;;;8.10;5.63;;;;;;;;;;4973362;28;20225;-75
2022/10/25 08:27:53;;;;;;;8.53;5.97;;;;;;;;;;5008371;28;20216;-75
2022/10/25 08:30:19;;;;;;;10.80;5.45;;;;;;;;;;5009831;28;20224;-76
2022/10/25 08:32:45;;;;;;;8.73;5.73;;;;;;;;;;4968483;28;20218;-76
2022/10/25 08:35:14;;;;;;;6.27;5.20;;;;;;;;;;5002813;28;20224;-77
2022/10/25 08:37:42;;;;;;;8.57;5.27;;;;;;;;;;4991526;28;20220;-77
2022/10/25 08:40:28;;;;;;;5.60;5.00;;;;;;;;;;5007841;28;20248;-77
2022/10/25 08:43:01;;;;;;;7.60;5.22;;;;;;;;;;4997718;28;20208;-77
2022/10/25 08:45:32;;;;;;;6.87;4.97;;;;;;;;;;4996085;28;20247;-77
2022/10/25 08:48:00;;;;;;;7.10;5.13;;;;;;;;;;5008632;28;20701;-77
2022/10/25 08:50:56;;;;;;;5.15;4.10;;;;;;;;;;5012823;28;20295;-77
2022/10/25 08:53:26;;;;;;;7.63;5.07;;;;;;;;;;5000306;28;20646;-77
2022/10/25 08:55:52;;;;;;;11.35;4.70;;;;;;;;;;4991636;28;20220;-79
2022/10/25 08:58:23;;;;;;;8.48;4.57;;;;;;;;;;5008454;28;20219;-77
2022/10/25 09:00:51;;;;;;;9.32;5.00;;;;;;;;;;4995305;28;20233;-77
2022/10/25 09:03:24;;;;;;;10.32;4.80;;;;;;;;;;5010427;28;20218;-77
2022/10/25 09:06:14;;;;;;;8.18;5.18;;;;;;;;;;4971931;28;20224;-77
2022/10/25 09:08:47;;;;;;;6.97;5.15;;;;;;;;;;5018788;28;20307;-77
2022/10/25 09:11:52;;;;;;;7.20;5.28;;;;;;;;;;4994113;28;20269;-77
2022/10/25 09:14:21;;;;;;;9.23;4.47;;;;;;;;;;4994563;28;20335;-77
2022/10/25 09:17:03;;;;;;;6.70;4.47;;;;;;;;;;4993465;28;20744;-77
2022/10/25 09:19:32;;;;;;;7.10;4.90;;;;;;;;;;5003196;28;20216;-77
2022/10/25 09:22:12;;;;;;;7.72;4.68;;;;;;;;;;5012623;28;20726;-78
2022/10/25 09:24:47;;;;;;;11.73;4.95;;;;;;;;;;4977884;28;20691;-77
2022/10/25 09:27:27;;;;;;;7.60;5.07;;;;;;;;;;4996509;28;20267;-77
2022/10/25 09:30:09;;;;;;;8.10;4.70;;;;;;;;;;5014947;28;20224;-78
2022/10/25 09:32:53;;;;;;;9.32;5.07;;;;;;;;;;5019252;28;20310;-76
2022/10/25 09:35:30;;;;;;;7.70;4.70;;;;;;;;;;4990274;28;20232;-77
2022/10/25 09:38:00;;;;;;;7.73;4.67;;;;;;;;;;5008207;28;20239;-77
2022/10/25 09:40:34;;;;;;;8.25;4.68;;;;;;;;;;4977482;28;20242;-77
2022/10/25 09:43:05;;;;;;;11.02;4.15;;;;;;;;;;4992189;28;20219;-76
2022/10/25 09:45:43;;;;;;;7.13;4.28;;;;;;;;;;4978058;28;20711;-77
2022/10/25 09:48:45;;;;;;;5.90;4.00;;;;;;;;;;4977371;28;20237;-76
2022/10/25 09:51:37;;;;;;;8.43;4.50;;;;;;;;;;5004129;28;20270;-77
2022/10/25 09:54:20;;;;;;;8.43;3.50;;;;;;;;;;4992128;28;20216;-76
2022/10/25 09:56:48;;;;;;;7.13;3.70;;;;;;;;;;4978316;28;20691;-76
2022/10/25 09:59:15;;;;;;;6.85;3.95;;;;;;;;;;4991135;28;20262;-77
2022/10/25 10:01:43;;;;;;;5.88;4.25;;;;;;;;;;4993561;28;21023;-77
2022/10/25 10:04:34;;;;;;;6.75;4.05;;;;;;;;;;4993583;28;20245;-77
2022/10/25 10:07:37;;;;;;;5.43;3.17;;;;;;;;;;4989934;28;20220;-76
2022/10/25 10:10:10;;;;;;;5.10;3.90;;;;;;;;;;4932396;28;20253;-77
2022/10/25 10:13:11;;;;;;;6.35;3.97;;;;;;;;;;4981348;28;20228;-76
2022/10/25 10:15:58;;;;;;;7.18;3.50;;;;;;;;;;5013414;28;20262;-77
2022/10/25 10:18:27;;;;;;;8.05;3.60;;;;;;;;;;5004102;28;20299;-77
2022/10/25 10:21:05;;;;;;;6.72;3.33;;;;;;;;;;5004381;28;20227;-76
2022/10/25 10:23:45;;;;;;;3.60;3.10;;;;;;;;;;5002803;28;20220;-77
2022/10/25 10:26:23;;;;;;;6.32;3.38;;;;;;;;;;5005724;28;20707;-76
2022/10/25 10:29:00;;;;;;;4.30;3.08;;;;;;;;;;4976135;28;20230;-77
2022/10/25 10:31:32;;;;;;;5.82;3.00;;;;;;;;;;4965670;28;20585;-77
2022/10/25 10:33:58;;;;;;;6.30;3.43;;;;;;;;;;4980175;28;20698;-76
2022/10/25 10:36:27;;;;;;;7.00;3.60;;;;;;;;;;4985949;28;20219;-76
2022/10/25 10:38:53;;;;;;;6.57;2.97;;;;;;;;;;4991523;28;20212;-77
2022/10/25 10:41:26;;;;;;;5.28;3.40;;;;;;;;;;4990279;28;20222;-77
2022/10/25 10:44:12;;;;;;;6.53;3.03;;;;;;;;;;4994518;28;20229;-77
2022/10/25 10:46:45;;;;;;;5.90;2.90;;;;;;;;;;5002036;28;20639;-77
2022/10/25 10:49:10;;;;;;;6.97;3.55;;;;;;;;;;4972965;28;20224;-76
2022/10/25 10:51:45;;;;;;;5.13;3.03;;;;;;;;;;4956098;28;20276;-77
2022/10/25 10:54:31;;;;;;;6.18;2.80;;;;;;;;;;5008273;28;20274;-77
2022/10/25 10:57:05;;;;;;;7.53;3.25;;;;;;;;;;5005035;28;20469;-77
2022/10/25 10:59:34;;;;;;;4.45;2.78;;;;;;;;;;4998226;28;20223;-77
2022/10/25 11:02:38;;;;;;;4.55;2.75;;;;;;;;;;5019534;28;20244;-75
2022/10/25 11:05:24;;;;;;;3.97;2.67;;;;;;;;;;4957079;28;20327;-78
2022/10/25 11:08:19;;;;;;;4.85;2.55;;;;;;;;;;5015440;28;20592;-77
2022/10/25 11:10:44;;;;;;;9.38;3.08;;;;;;;;;;4990785;28;20234;-75
2022/10/25 11:13:10;;;;;;;8.30;2.50;;;;;;;;;;5005267;28;20224;-76
2022/10/25 11:15:55;;;;;;;6.57;2.97;;;;;;;;;;4990634;28;20698;-77
2022/10/25 11:18:26;;;;;;;6.97;2.60;;;;;;;;;;5006337;28;20224;-77
2022/10/25 11:20:53;;;;;;;7.32;2.75;;;;;;;;;;4978439;28;20221;-76
2022/10/25 11:23:27;;;;;;;4.93;2.65;;;;;;;;;;4963621;28;20216;-75
2022/10/25 11:26:19;;;;;;;8.95;2.72;;;;;;;;;;4991931;28;20205;-76
2022/10/25 11:28:53;;;;;;;6.80;2.45;;;;;;;;;;5005772;28;20231;-76
2022/10/25 11:31:58;;;;;;;6.20;2.53;;;;;;;;;;5007763;28;20246;-76
2022/10/25 11:34:38;;;;;;;7.70;2.40;;;;;;;;;;4976002;28;20307;-78
2022/10/25 11:37:20;;;;;;;5.45;2.97;;;;;;;;;;5005953;28;20231;-77
2022/10/25 11:40:04;;;;;;;4.80;2.60;;;;;;;;;;5013364;28;20320;-77
2022/10/25 11:42:38;;;;;;;6.63;2.47;;;;;;;;;;5024401;28;20628;-78
2022/10/25 11:45:23;;;;;;;8.77;2.30;;;;;;;;;;5012359;28;20223;-77
2022/10/25 11:48:02;;;;;;;2.28;2.00;;;;;;;;;;4999866;28;20220;-76
2022/10/25 11:50:42;;;;;;;4.68;2.20;;;;;;;;;;4987775;28;20258;-76
2022/10/25 11:53:35;;;;;;;4.22;2.00;;;;;;;;;;4986343;28;20221;-77
2022/10/25 11:56:12;;;;;;;4.55;2.10;;;;;;;;;;5019901;28;20312;-76
2022/10/25 11:58:43;;;;;;;4.10;1.90;;;;;;;;;;5022067;28;20314;-75
2022/10/25 12:01:30;;;;;;;2.25;1.88;;;;;;;;;;5006337;28;20224;-75
2022/10/25 12:04:21;;;;;;;3.10;2.17;;;;;;;;;;5011813;28;20220;-75
2022/10/25 12:07:21;;;;;;;3.05;2.10;;;;;;;;;;4993943;28;20228;-76
2022/10/25 12:10:17;;;;;;;8.00;2.53;;;;;;;;;;4999358;28;20224;-75
2022/10/25 12:12:50;;;;;;;4.75;2.25;;;;;;;;;;4994923;28;20228;-76
2022/10/25 12:15:37;;;;;;;2.70;1.90;;;;;;;;;;5003132;28;20228;-76
2022/10/25 12:18:04;;;;;;;2.97;1.80;;;;;;;;;;5002466;28;20227;-77
2022/10/25 12:20:31;;;;;;;3.63;1.88;;;;;;;;;;4995300;28;20289;-75
2022/10/25 12:23:00;;;;;;;5.25;2.28;;;;;;;;;;5005964;28;20228;-76
2022/10/25 12:25:42;;;;;;;3.20;1.80;;;;;;;;;;5001289;28;20216;-76
2022/10/25 12:28:12;;;;;;;2.70;1.45;;;;;;;;;;5010310;28;20255;-77
2022/10/25 12:30:38;;;;;;;2.97;1.50;;;;;;;;;;5006266;28;20229;-78
2022/10/25 12:33:09;;;;;;;3.17;1.58;;;;;;;;;;4978482;28;20640;-74
2022/10/25 12:35:44;;;;;;;4.10;1.60;;;;;;;;;;4991637;28;20224;-77
2022/10/25 12:38:18;;;;;;;3.40;1.65;;;;;;;;;;4986591;28;20229;-75
2022/10/25 12:40:46;;;;;;;2.55;1.33;;;;;;;;;;5005082;28;20243;-74
2022/10/25 12:43:31;;;;;;;6.30;1.48;;;;;;;;;;5007423;28;20331;-75
2022/10/25 12:46:00;;;;;;;3.15;1.58;;;;;;;;;;4990002;28;20212;-77
2022/10/25 12:48:39;;;;;;;3.45;1.27;;;;;;;;;;5020693;28;20220;-74
2022/10/25 12:51:07;;;;;;;4.00;1.58;;;;;;;;;;5001795;28;20229;-75
2022/10/25 12:53:57;;;;;;;2.13;1.40;;;;;;;;;;5004370;28;20258;-77
2022/10/25 12:56:41;;;;;;;7.28;2.05;;;;;;;;;;5004383;28;20299;-76
2022/10/25 12:59:37;;;;;;;7.00;2.15;;;;;;;;;;5018880;28;20327;-75
2022/10/25 13:02:27;;;;;;;6.93;2.15;;;;;;;;;;4998993;28;20698;-77
2022/10/25 13:05:30;;;;;;;3.03;2.05;;;;;;;;;;5018069;28;20231;-77
2022/10/25 13:08:00;;;;;;;7.07;2.85;;;;;;;;;;5017964;28;20212;-75
2022/10/25 13:10:30;;;;;;;3.15;2.20;;;;;;;;;;4977603;28;20309;-77
2022/10/25 13:13:02;;;;;;;2.90;2.00;;;;;;;;;;4973880;28;20247;-73
2022/10/25 13:15:53;;;;;;;6.03;3.17;;;;;;;;;;4992213;28;20224;-78
2022/10/25 13:18:45;;;;;;;8.63;3.03;;;;;;;;;;4992026;28;20208;-74
2022/10/25 13:21:14;;;;;;;7.72;2.75;;;;;;;;;;4997039;28;20224;-75
2022/10/25 13:23:56;;;;;;;3.40;2.80;;;;;;;;;;4985776;28;20217;-74
2022/10/25 13:26:24;;;;;;;3.45;2.53;;;;;;;;;;5008610;28;20224;-73
2022/10/25 13:28:52;;;;;;;3.78;2.45;;;;;;;;;;4979445;28;20220;-75
2022/10/25 13:31:27;;;;;;;5.28;2.50;;;;;;;;;;4995038;28;20273;-73
2022/10/25 13:34:12;;;;;;;3.92;2.50;;;;;;;;;;4996177;28;20223;-73
2022/10/25 13:36:54;;;;;;;3.92;2.28;;;;;;;;;;4991608;28;20314;-74
2022/10/25 13:42:49;;;;;;;3.20;2.20;;;;;;;;;;5020389;28;20334;-73
2022/10/25 13:45:20;;;;;;;3.33;2.28;;;;;;;;;;4970144;28;20616;-73
2022/10/25 13:48:15;;;;;;;6.43;2.20;;;;;;;;;;5000800;28;20203;-74
2022/10/25 13:50:44;;;;;;;3.67;2.40;;;;;;;;;;4997786;28;20963;-74
2022/10/25 13:53:36;;;;;;;2.47;2.28;;;;;;;;;;4988099;28;20300;-73
2022/10/25 13:56:07;;;;;;;2.40;1.92;;;;;;;;;;4990917;28;20705;-74
2022/10/25 13:58:44;;;;;;;2.67;2.33;;;;;;;;;;4975300;28;20289;-74
2022/10/25 14:01:19;;;;;;;2.85;2.35;;;;;;;;;;4942147;28;20216;-73
2022/10/25 14:04:05;;;;;;;3.80;2.20;;;;;;;;;;4984721;28;20224;-73
2022/10/25 14:06:34;;;;;;;5.43;2.53;;;;;;;;;;5017371;28;20253;-74
2022/10/25 14:09:35;;;;;;;6.32;2.35;;;;;;;;;;4978853;28;20236;-75
2022/10/25 14:12:00;;;;;;;3.00;2.50;;;;;;;;;;4988696;28;20756;-74
2022/10/25 14:14:42;;;;;;;4.47;2.78;;;;;;;;;;5004781;28;20226;-74
2022/10/25 14:17:15;;;;;;;4.32;2.95;;;;;;;;;;4974077;28;20331;-74
2022/10/25 14:19:54;;;;;;;7.00;3.40;;;;;;;;;;4968870;28;20825;-74
2022/10/25 14:22:29;;;;;;;6.65;4.20;;;;;;;;;;4969154;28;20229;-74
2022/10/25 14:24:57;;;;;;;5.85;3.60;;;;;;;;;;4975309;28;21693;-73
2022/10/25 14:27:28;;;;;;;4.28;2.97;;;;;;;;;;4968730;28;20256;-74
2022/10/25 14:30:16;;;;;;;4.50;3.20;;;;;;;;;;4981761;28;20221;-75
2022/10/25 14:32:56;;;;;;;5.28;2.70;;;;;;;;;;5003579;28;20826;-74
2022/10/25 14:35:32;;;;;;;4.07;3.00;;;;;;;;;;5023549;28;20690;-75
2022/10/25 14:37:59;;;;;;;3.83;2.47;;;;;;;;;;4994581;28;20315;-74
2022/10/25 14:40:27;;;;;;;4.32;3.00;;;;;;;;;;4994812;28;20235;-75
2022/10/25 14:42:54;;;;;;;5.25;2.58;;;;;;;;;;4978046;28;20220;-75
2022/10/25 14:45:23;;;;;;;4.25;2.42;;;;;;;;;;4992976;28;20220;-73
2022/10/25 14:47:51;;;;;;;4.43;2.72;;;;;;;;;;5006283;28;20228;-74
2022/10/25 14:50:22;;;;;;;7.45;3.05;;;;;;;;;;5006394;28;20220;-73
2022/10/25 14:52:48;;;;;;;4.32;2.60;;;;;;;;;;5004642;28;20706;-74
2022/10/25 14:55:17;;;;;;;4.40;3.50;;;;;;;;;;4990407;28;20645;-74
2022/10/25 14:57:42;;;;;;;5.50;3.85;;;;;;;;;;5010740;28;20223;-74
2022/10/25 15:00:16;;;;;;;6.78;3.38;;;;;;;;;;4990545;28;20231;-75
2022/10/25 15:02:46;;;;;;;5.78;3.60;;;;;;;;;;4969367;28;20241;-74
2022/10/25 15:05:21;;;;;;;3.72;3.28;;;;;;;;;;4995913;28;20216;-74
2022/10/25 15:07:50;;;;;;;8.13;3.28;;;;;;;;;;4979728;28;20358;-74
2022/10/25 15:10:40;;;;;;;3.60;2.70;;;;;;;;;;4991802;28;20258;-74
2022/10/25 15:13:21;;;;;;;8.25;4.93;;;;;;;;;;4996004;28;20232;-73
2022/10/25 15:15:47;;;;;;;5.32;3.67;;;;;;;;;;4996394;28;20224;-74
2022/10/25 15:18:35;;;;;;;3.85;3.28;;;;;;;;;;4987827;28;20307;-73